Time;durP1;ratioP1;P1;durP2;ratioP2;P2;SDS_P1;SDS_P2;PMS_P1;PMS_P2;Temp;Humidity;BMP_temperature;BMP_pressure;BME280_temperature;BME280_humidity;BME280_pressure;Samples;Min_cycle;Max_cycle;Signal;HPM_P1;HPM_P2
2021/06/27 00:00:24;;;;;;;16.63;11.02;;;19.90;83.60;;;;;;4993227;28;20030;-73
2021/06/27 00:02:50;;;;;;;14.73;11.40;;;19.90;83.90;;;;;;4989919;28;20026;-73
2021/06/27 00:05:19;;;;;;;15.88;11.32;;;19.80;84.10;;;;;;4991107;28;20044;-73
2021/06/27 00:07:45;;;;;;;15.52;12.05;;;19.80;84.10;;;;;;4990494;28;20390;-73
2021/06/27 00:10:15;;;;;;;16.48;12.63;;;19.80;84.20;;;;;;4995849;28;20041;-73
2021/06/27 00:12:41;;;;;;;13.95;11.25;;;19.80;84.20;;;;;;4983801;28;20465;-73
2021/06/27 00:15:13;;;;;;;15.93;10.75;;;19.80;84.40;;;;;;4991636;28;20025;-72
2021/06/27 00:17:40;;;;;;;17.17;12.82;;;19.70;84.50;;;;;;4991544;28;20088;-73
2021/06/27 00:20:12;;;;;;;15.57;12.85;;;19.70;84.50;;;;;;4996879;28;20026;-73
2021/06/27 00:22:38;;;;;;;15.35;11.85;;;19.70;84.50;;;;;;4988822;28;20395;-73
2021/06/27 00:25:06;;;;;;;16.00;12.90;;;19.60;84.50;;;;;;4991700;28;20216;-73
2021/06/27 00:27:32;;;;;;;14.88;12.50;;;19.60;84.80;;;;;;4990771;28;20045;-73
2021/06/27 00:29:58;;;;;;;15.27;12.73;;;19.60;85.00;;;;;;4993095;28;20026;-74
2021/06/27 00:32:24;;;;;;;14.18;11.57;;;19.60;85.20;;;;;;4993572;28;20558;-73
2021/06/27 00:34:50;;;;;;;14.40;12.40;;;19.60;85.10;;;;;;5018527;23;20866;-72
2021/06/27 00:37:15;;;;;;;17.95;13.27;;;19.60;85.20;;;;;;5039465;28;20402;-73
2021/06/27 00:39:41;;;;;;;17.70;13.60;;;19.50;85.20;;;;;;5037120;28;20029;-73
2021/06/27 00:42:07;;;;;;;17.02;13.65;;;19.50;85.20;;;;;;5041890;28;20033;-73
2021/06/27 00:44:33;;;;;;;19.88;14.00;;;19.50;85.50;;;;;;5038336;28;20031;-70
2021/06/27 00:46:59;;;;;;;17.83;14.48;;;19.50;85.30;;;;;;5041203;28;20044;-73
2021/06/27 00:49:24;;;;;;;14.73;12.98;;;19.50;85.50;;;;;;5038724;28;20026;-72
2021/06/27 00:51:50;;;;;;;16.40;12.77;;;19.50;85.50;;;;;;5039332;28;20021;-71
2021/06/27 00:54:16;;;;;;;17.67;13.35;;;19.40;85.60;;;;;;5037724;28;20036;-71
2021/06/27 00:56:46;;;;;;;17.08;13.43;;;19.40;85.80;;;;;;5038245;28;20478;-71
2021/06/27 00:59:14;;;;;;;17.60;13.30;;;19.40;85.90;;;;;;5038794;28;20029;-73
2021/06/27 01:01:39;;;;;;;16.50;12.70;;;19.40;86.00;;;;;;5038528;28;20816;-70
2021/06/27 01:04:05;;;;;;;15.82;12.25;;;19.40;86.10;;;;;;5040366;28;20111;-70
2021/06/27 01:06:31;;;;;;;17.30;12.90;;;19.30;86.40;;;;;;5040177;28;20030;-71
2021/06/27 01:08:56;;;;;;;15.80;13.00;;;19.30;86.70;;;;;;5037207;28;20085;-71
2021/06/27 01:11:22;;;;;;;16.42;13.02;;;19.30;86.60;;;;;;5037409;28;20040;-71
2021/06/27 01:13:48;;;;;;;14.38;12.18;;;19.30;86.80;;;;;;5039404;28;20024;-71
2021/06/27 01:16:14;;;;;;;17.42;12.98;;;19.30;87.00;;;;;;4997332;28;20057;-71
2021/06/27 01:18:39;;;;;;;17.85;13.50;;;19.30;87.10;;;;;;5039169;28;20025;-71
2021/06/27 01:21:10;;;;;;;15.40;12.95;;;19.20;87.50;;;;;;5021098;28;20024;-71
2021/06/27 01:23:36;;;;;;;17.10;14.48;;;19.20;87.10;;;;;;5037185;28;20025;-71
2021/06/27 01:26:02;;;;;;;15.35;12.30;;;19.20;87.10;;;;;;5037165;28;20056;-71
2021/06/27 01:28:28;;;;;;;17.33;14.00;;;19.20;87.00;;;;;;5038389;28;20475;-71
2021/06/27 01:30:54;;;;;;;15.80;13.00;;;19.20;87.30;;;;;;5039725;28;20026;-71
2021/06/27 01:33:21;;;;;;;16.40;13.60;;;19.10;87.30;;;;;;5039867;28;20086;-71
2021/06/27 01:35:48;;;;;;;18.10;13.05;;;19.10;87.60;;;;;;4997912;28;20033;-71
2021/06/27 01:38:16;;;;;;;15.70;12.43;;;19.10;87.80;;;;;;5022774;28;20030;-71
2021/06/27 01:40:42;;;;;;;15.75;11.95;;;19.10;87.90;;;;;;5039015;28;20100;-71
2021/06/27 01:43:20;;;;;;;16.10;13.25;;;19.10;87.90;;;;;;5036511;28;20037;-71
2021/06/27 01:45:51;;;;;;;15.77;12.82;;;19.00;88.00;;;;;;5039309;28;20040;-71
2021/06/27 01:48:17;;;;;;;15.05;12.77;;;19.00;88.10;;;;;;5038813;28;20040;-71
2021/06/27 01:50:47;;;;;;;17.10;12.30;;;19.00;88.10;;;;;;5037369;28;20037;-70
2021/06/27 01:53:16;;;;;;;17.38;13.65;;;19.00;88.40;;;;;;5038490;28;20045;-71
2021/06/27 01:55:43;;;;;;;18.13;13.90;;;18.90;88.20;;;;;;5039006;28;20030;-71
2021/06/27 01:58:09;;;;;;;17.80;13.90;;;19.00;88.40;;;;;;5039421;28;20052;-71
2021/06/27 02:00:36;;;;;;;17.10;13.85;;;18.90;88.40;;;;;;5037824;28;20307;-71
2021/06/27 02:03:02;;;;;;;19.20;14.25;;;18.90;88.40;;;;;;5036734;28;20025;-71
2021/06/27 02:05:30;;;;;;;18.67;14.38;;;18.90;88.40;;;;;;5038304;28;20106;-72
2021/06/27 02:07:58;;;;;;;19.17;14.60;;;18.90;88.60;;;;;;5038122;28;20030;-71
2021/06/27 02:10:25;;;;;;;16.73;13.32;;;18.90;88.70;;;;;;5040439;28;20025;-71
2021/06/27 02:12:53;;;;;;;16.83;13.98;;;18.90;88.80;;;;;;5037150;28;20021;-70
2021/06/27 02:15:23;;;;;;;17.48;14.07;;;18.90;88.60;;;;;;5034973;28;20403;-72
2021/06/27 02:17:50;;;;;;;17.92;13.98;;;18.80;88.70;;;;;;5027854;28;20060;-70
2021/06/27 02:20:16;;;;;;;20.30;14.52;;;18.80;88.90;;;;;;5041098;28;20514;-73
2021/06/27 02:22:42;;;;;;;19.30;14.18;;;18.80;89.00;;;;;;5036287;28;20352;-73
2021/06/27 02:25:08;;;;;;;17.90;15.05;;;18.80;88.90;;;;;;5037894;28;20030;-71
2021/06/27 02:27:34;;;;;;;16.77;13.95;;;18.80;88.90;;;;;;5019661;28;20108;-71
2021/06/27 02:30:00;;;;;;;21.52;14.48;;;18.80;89.20;;;;;;5034919;28;20136;-71
2021/06/27 02:32:25;;;;;;;16.85;13.57;;;18.80;89.10;;;;;;5037599;28;20035;-71
2021/06/27 02:34:51;;;;;;;17.42;13.48;;;18.80;89.20;;;;;;5037697;28;20017;-71
2021/06/27 02:37:17;;;;;;;18.92;14.48;;;18.80;89.20;;;;;;4995645;28;20394;-71
2021/06/27 02:39:43;;;;;;;17.52;14.00;;;18.70;89.30;;;;;;5038978;28;20029;-73
2021/06/27 02:42:09;;;;;;;19.92;14.30;;;18.70;89.20;;;;;;5038416;28;20069;-70
2021/06/27 02:44:34;;;;;;;18.52;13.88;;;18.80;89.40;;;;;;5036783;28;20033;-71
2021/06/27 02:47:00;;;;;;;16.88;13.90;;;18.80;89.50;;;;;;5035998;28;20029;-70
2021/06/27 02:49:26;;;;;;;18.35;13.52;;;18.80;89.60;;;;;;5036705;28;20028;-71
2021/06/27 02:51:52;;;;;;;18.55;13.98;;;18.80;89.60;;;;;;5037647;28;20040;-70
2021/06/27 02:54:17;;;;;;;17.35;14.02;;;18.80;89.70;;;;;;5037792;28;20025;-70
2021/06/27 02:56:43;;;;;;;16.42;13.52;;;18.80;89.50;;;;;;5038323;28;20030;-70
2021/06/27 02:59:09;;;;;;;18.65;14.05;;;18.80;89.60;;;;;;5037180;28;20056;-70
2021/06/27 03:01:34;;;;;;;18.80;13.85;;;18.70;89.60;;;;;;4998671;28;20029;-73
2021/06/27 03:04:01;;;;;;;18.35;14.40;;;18.70;89.60;;;;;;5040931;28;20061;-70
2021/06/27 03:06:26;;;;;;;17.80;13.38;;;18.70;89.70;;;;;;5041471;28;20025;-73
2021/06/27 03:08:52;;;;;;;18.58;13.77;;;18.70;89.70;;;;;;5040299;28;20026;-71
2021/06/27 03:11:18;;;;;;;15.88;12.15;;;18.80;89.90;;;;;;5011848;28;20102;-71
2021/06/27 03:13:43;;;;;;;19.10;13.32;;;18.80;89.90;;;;;;5031218;28;20044;-71
2021/06/27 03:16:10;;;;;;;18.77;13.05;;;18.80;90.00;;;;;;5037495;28;20023;-71
2021/06/27 03:18:37;;;;;;;17.45;13.35;;;18.80;90.00;;;;;;5040634;28;20441;-71
2021/06/27 03:21:03;;;;;;;16.35;14.00;;;18.80;90.00;;;;;;5050027;28;20055;-71
2021/06/27 03:23:30;;;;;;;17.63;13.82;;;18.80;90.10;;;;;;5038284;28;20053;-70
2021/06/27 03:25:55;;;;;;;16.85;13.35;;;18.90;90.00;;;;;;5038849;28;20030;-71
2021/06/27 03:28:22;;;;;;;16.75;12.98;;;18.80;90.00;;;;;;5035970;28;20039;-71
2021/06/27 03:30:49;;;;;;;16.02;13.43;;;18.90;90.00;;;;;;5000486;28;20057;-71
2021/06/27 03:33:15;;;;;;;18.05;13.40;;;18.90;90.00;;;;;;5035346;28;20029;-71
2021/06/27 03:35:40;;;;;;;16.02;14.07;;;18.90;90.10;;;;;;4996021;28;20340;-71
2021/06/27 03:40:51;;;;;;;16.23;13.23;;;18.90;90.00;;;;;;5040014;28;20033;-71
2021/06/27 03:43:16;;;;;;;15.68;13.18;;;18.90;89.90;;;;;;5040714;28;20079;-71
2021/06/27 03:45:42;;;;;;;18.17;13.07;;;18.90;90.00;;;;;;5041183;28;20032;-71
2021/06/27 03:48:08;;;;;;;17.38;13.73;;;18.90;90.00;;;;;;5035332;28;20099;-71
2021/06/27 03:50:34;;;;;;;16.50;13.27;;;18.90;90.10;;;;;;5024924;28;20021;-71
2021/06/27 03:53:04;;;;;;;20.15;14.10;;;18.90;90.10;;;;;;5044699;28;20057;-71
2021/06/27 03:55:30;;;;;;;17.67;14.00;;;18.90;89.90;;;;;;5023489;28;20544;-70
2021/06/27 03:57:56;;;;;;;16.63;12.82;;;18.90;90.00;;;;;;5041602;28;20021;-71
2021/06/27 04:00:22;;;;;;;18.35;14.23;;;18.90;90.00;;;;;;5042856;28;20513;-71
2021/06/27 04:02:49;;;;;;;17.70;12.98;;;18.90;90.00;;;;;;5042007;28;20855;-71
2021/06/27 04:05:15;;;;;;;17.83;13.73;;;19.00;89.80;;;;;;5045730;28;20040;-71
2021/06/27 04:07:41;;;;;;;16.90;13.70;;;19.00;89.70;;;;;;5047149;28;20040;-71
2021/06/27 04:10:08;;;;;;;17.05;13.20;;;19.00;89.60;;;;;;5039842;28;20475;-71
2021/06/27 04:12:34;;;;;;;14.18;12.68;;;19.00;89.50;;;;;;5037898;28;20040;-71
2021/06/27 04:14:59;;;;;;;17.05;12.95;;;19.00;89.40;;;;;;4994503;28;20481;-71
2021/06/27 04:17:25;;;;;;;15.50;12.27;;;19.00;88.90;;;;;;5018055;28;20477;-70
2021/06/27 04:19:51;;;;;;;17.70;12.70;;;19.00;89.10;;;;;;4995558;28;20485;-71
2021/06/27 04:22:18;;;;;;;15.10;12.20;;;19.00;88.90;;;;;;5039553;28;20032;-71
2021/06/27 04:24:44;;;;;;;13.15;10.90;;;19.10;89.00;;;;;;4994091;28;20135;-70
2021/06/27 04:27:10;;;;;;;16.65;12.57;;;19.10;88.80;;;;;;5002882;28;20025;-71
2021/06/27 04:29:37;;;;;;;16.20;11.20;;;19.10;88.40;;;;;;5041775;28;20107;-71
2021/06/27 04:32:03;;;;;;;15.85;12.43;;;19.10;88.30;;;;;;4981241;28;20377;-71
2021/06/27 04:34:29;;;;;;;15.23;11.88;;;19.10;88.30;;;;;;5015292;28;20036;-71
2021/06/27 04:36:55;;;;;;;19.50;13.95;;;19.10;89.50;;;;;;5035111;28;20037;-71
2021/06/27 04:39:21;;;;;;;16.60;13.13;;;19.20;89.10;;;;;;5039636;28;20121;-71
2021/06/27 04:41:47;;;;;;;16.38;13.60;;;19.20;89.00;;;;;;5040232;28;20036;-71
2021/06/27 04:44:13;;;;;;;17.08;13.55;;;19.20;89.40;;;;;;5037748;28;20103;-70
2021/06/27 04:46:39;;;;;;;19.05;14.93;;;19.20;89.80;;;;;;5025360;28;20116;-71
2021/06/27 04:49:06;;;;;;;18.20;14.27;;;19.20;90.00;;;;;;5037285;28;20048;-71
2021/06/27 04:51:32;;;;;;;17.77;14.30;;;19.20;89.90;;;;;;5041163;28;20026;-71
2021/06/27 04:54:00;;;;;;;16.35;13.75;;;19.20;90.00;;;;;;5040391;28;20048;-71
2021/06/27 04:56:26;;;;;;;18.23;14.10;;;19.20;90.00;;;;;;5029152;28;20510;-71
2021/06/27 04:58:52;;;;;;;16.90;13.77;;;19.20;90.00;;;;;;5029522;28;20071;-71
2021/06/27 05:01:17;;;;;;;18.77;14.45;;;19.20;90.00;;;;;;4996351;28;20105;-71
2021/06/27 05:03:43;;;;;;;22.20;16.63;;;19.20;90.00;;;;;;5032891;28;20156;-71
2021/06/27 05:06:09;;;;;;;21.20;16.65;;;19.20;90.00;;;;;;4995698;28;20028;-72
2021/06/27 05:08:34;;;;;;;22.00;17.33;;;19.20;89.90;;;;;;5037507;28;20029;-71
2021/06/27 05:11:00;;;;;;;21.58;16.27;;;19.30;89.80;;;;;;5038512;28;20032;-71
2021/06/27 05:13:26;;;;;;;20.85;16.67;;;19.30;89.60;;;;;;5031974;28;20029;-71
2021/06/27 05:15:52;;;;;;;19.60;15.75;;;19.30;89.30;;;;;;5037299;28;20100;-71
2021/06/27 05:18:19;;;;;;;21.58;17.08;;;19.30;89.30;;;;;;5033730;28;20119;-71
2021/06/27 05:20:45;;;;;;;20.60;17.25;;;19.30;89.00;;;;;;5032364;28;20041;-72
2021/06/27 05:23:14;;;;;;;20.13;16.55;;;19.40;88.80;;;;;;5042125;28;20044;-71
2021/06/27 05:25:39;;;;;;;19.55;15.32;;;19.40;88.80;;;;;;5043216;28;20040;-72
2021/06/27 05:28:05;;;;;;;18.55;15.10;;;19.40;88.70;;;;;;5024216;28;20035;-72
2021/06/27 05:30:31;;;;;;;21.95;17.67;;;19.40;88.50;;;;;;4980249;28;20104;-71
2021/06/27 05:32:57;;;;;;;26.23;18.48;;;19.40;88.50;;;;;;5035305;28;20060;-72
2021/06/27 05:35:23;;;;;;;22.45;16.80;;;19.40;88.10;;;;;;4998716;28;20083;-72
2021/06/27 05:37:49;;;;;;;23.25;18.08;;;19.40;88.50;;;;;;5019484;28;20402;-72
2021/06/27 05:40:14;;;;;;;21.20;17.08;;;19.40;88.80;;;;;;5020286;28;20108;-72
2021/06/27 05:42:40;;;;;;;20.55;17.08;;;19.40;88.90;;;;;;5035005;28;20128;-71
2021/06/27 05:45:07;;;;;;;21.50;17.35;;;19.50;88.90;;;;;;5017962;28;20031;-72
2021/06/27 05:47:32;;;;;;;20.95;16.77;;;19.50;89.30;;;;;;4996801;28;20044;-71
2021/06/27 05:49:59;;;;;;;21.08;15.68;;;19.60;88.70;;;;;;5035608;28;20116;-71
2021/06/27 05:52:25;;;;;;;22.27;16.75;;;19.60;88.50;;;;;;5043051;28;20086;-72
2021/06/27 05:54:50;;;;;;;20.50;16.23;;;19.60;88.30;;;;;;5040750;28;20040;-71
2021/06/27 05:57:16;;;;;;;19.50;16.35;;;19.60;88.00;;;;;;5038166;28;20029;-70
2021/06/27 05:59:43;;;;;;;19.40;16.13;;;19.70;88.20;;;;;;5037901;28;20057;-71
2021/06/27 06:02:08;;;;;;;20.77;15.93;;;19.70;87.80;;;;;;5043586;28;20029;-71
2021/06/27 06:04:34;;;;;;;17.17;14.95;;;19.70;87.50;;;;;;5001446;28;20034;-72
2021/06/27 06:07:00;;;;;;;19.17;14.98;;;19.70;87.40;;;;;;5037248;28;20048;-71
2021/06/27 06:09:26;;;;;;;16.33;13.95;;;19.80;87.40;;;;;;5037965;28;20025;-71
2021/06/27 06:11:51;;;;;;;17.77;14.05;;;19.80;87.10;;;;;;5039607;28;20033;-70
2021/06/27 06:14:17;;;;;;;15.85;13.43;;;19.80;86.90;;;;;;4997379;28;20347;-70
2021/06/27 06:16:45;;;;;;;16.70;13.18;;;19.90;86.60;;;;;;5018736;28;20028;-71
2021/06/27 06:19:13;;;;;;;20.50;14.75;;;19.90;86.20;;;;;;5038651;28;20029;-70
2021/06/27 06:21:39;;;;;;;14.25;12.10;;;19.90;86.20;;;;;;5038171;28;20056;-71
2021/06/27 06:24:05;;;;;;;16.38;12.57;;;20.00;86.00;;;;;;5038094;28;20061;-71
2021/06/27 06:26:31;;;;;;;16.17;12.98;;;20.00;85.20;;;;;;5041417;28;20103;-71
2021/06/27 06:28:57;;;;;;;16.77;14.15;;;20.00;85.00;;;;;;5040057;28;20033;-71
2021/06/27 06:31:23;;;;;;;14.45;12.52;;;20.10;83.40;;;;;;4996135;28;20032;-71
2021/06/27 06:33:48;;;;;;;14.98;11.82;;;20.10;83.90;;;;;;5036516;28;20056;-72
2021/06/27 06:36:14;;;;;;;13.18;10.50;;;20.10;83.50;;;;;;5036527;28;20115;-76
2021/06/27 06:38:40;;;;;;;12.75;11.13;;;20.20;82.90;;;;;;5040456;28;20061;-76
2021/06/27 06:41:06;;;;;;;14.60;11.57;;;20.20;83.70;;;;;;5022358;28;20088;-74
2021/06/27 06:43:31;;;;;;;16.30;12.75;;;20.20;83.00;;;;;;5040163;28;20021;-77
2021/06/27 06:45:57;;;;;;;15.13;12.35;;;20.30;82.40;;;;;;5038806;28;20037;-75
2021/06/27 06:48:23;;;;;;;13.35;11.43;;;20.20;82.50;;;;;;5042509;28;20154;-75
2021/06/27 06:50:49;;;;;;;18.13;12.90;;;20.40;82.80;;;;;;5039273;28;20725;-74
2021/06/27 06:53:15;;;;;;;17.90;13.95;;;20.40;81.80;;;;;;5037163;28;20086;-74
2021/06/27 06:55:40;;;;;;;17.67;13.38;;;20.40;81.10;;;;;;5046186;28;20386;-75
2021/06/27 06:58:06;;;;;;;14.18;11.32;;;20.40;81.00;;;;;;5039287;28;20024;-75
2021/06/27 07:00:32;;;;;;;14.10;11.70;;;20.40;81.80;;;;;;5034726;28;20060;-75
2021/06/27 07:02:58;;;;;;;22.02;12.35;;;20.40;81.50;;;;;;5019875;28;20029;-75
2021/06/27 07:05:24;;;;;;;15.05;11.30;;;20.40;81.80;;;;;;5032951;28;20044;-76
2021/06/27 07:07:50;;;;;;;15.68;11.40;;;20.40;81.90;;;;;;4998697;28;20032;-75
2021/06/27 07:10:16;;;;;;;12.40;10.30;;;20.50;81.80;;;;;;5039201;28;20026;-76
2021/06/27 07:12:44;;;;;;;12.77;9.90;;;20.50;80.80;;;;;;5037939;28;20081;-76
2021/06/27 07:15:10;;;;;;;13.93;10.88;;;20.50;81.00;;;;;;5020809;28;20021;-76
2021/06/27 07:17:36;;;;;;;10.90;9.40;;;20.50;80.80;;;;;;5029253;28;20030;-75
2021/06/27 07:20:05;;;;;;;10.25;8.68;;;20.40;81.60;;;;;;5037984;28;20115;-75
2021/06/27 07:22:30;;;;;;;10.18;8.73;;;20.40;82.00;;;;;;5028712;28;21126;-74
2021/06/27 07:24:56;;;;;;;16.50;11.82;;;20.40;82.60;;;;;;5018265;28;20112;-76
2021/06/27 07:27:22;;;;;;;13.77;10.65;;;20.50;82.50;;;;;;5036335;28;20073;-75
2021/06/27 07:29:49;;;;;;;17.00;11.18;;;20.50;81.60;;;;;;5041179;28;20398;-76
2021/06/27 07:32:14;;;;;;;20.73;11.73;;;20.60;81.80;;;;;;5033714;28;20032;-75
2021/06/27 07:34:40;;;;;;;13.50;11.35;;;20.60;81.50;;;;;;5015243;28;20025;-76
2021/06/27 07:37:07;;;;;;;16.02;12.02;;;20.60;81.00;;;;;;5040770;28;20029;-76
2021/06/27 07:39:32;;;;;;;16.70;11.45;;;20.70;80.10;;;;;;5041547;28;20034;-75
2021/06/27 07:41:58;;;;;;;12.35;10.15;;;20.70;80.40;;;;;;5037470;28;20025;-73
2021/06/27 07:44:24;;;;;;;13.02;10.73;;;20.70;80.70;;;;;;5035769;28;20026;-75
2021/06/27 07:46:50;;;;;;;12.77;10.27;;;20.70;81.10;;;;;;5036779;28;20129;-74
2021/06/27 07:49:16;;;;;;;13.38;10.57;;;20.70;80.90;;;;;;5040391;28;20434;-74
2021/06/27 07:51:42;;;;;;;11.82;9.05;;;20.70;80.50;;;;;;5022337;28;20029;-75
2021/06/27 07:54:08;;;;;;;12.63;10.20;;;20.80;80.60;;;;;;5045832;28;20466;-75
2021/06/27 07:56:34;;;;;;;10.55;9.25;;;20.90;80.90;;;;;;5000188;28;20031;-73
2021/06/27 07:58:59;;;;;;;11.07;9.80;;;20.90;80.70;;;;;;5039316;28;20032;-75
2021/06/27 08:01:25;;;;;;;14.88;12.65;;;21.00;80.60;;;;;;5042741;28;20025;-76
2021/06/27 08:03:51;;;;;;;17.10;15.20;;;21.00;80.00;;;;;;5037877;28;20437;-75
2021/06/27 08:06:17;;;;;;;21.20;17.83;;;21.00;80.00;;;;;;5046948;28;20057;-74
2021/06/27 08:08:43;;;;;;;18.98;15.48;;;21.00;79.80;;;;;;5023291;28;20032;-75
2021/06/27 08:11:09;;;;;;;14.00;11.43;;;21.10;80.30;;;;;;5040931;28;20109;-76
2021/06/27 08:13:35;;;;;;;12.00;9.57;;;21.10;79.80;;;;;;5040957;28;20113;-76
2021/06/27 08:16:01;;;;;;;14.48;10.15;;;21.10;79.90;;;;;;5023517;28;20483;-77
2021/06/27 08:18:27;;;;;;;13.68;10.93;;;21.20;80.20;;;;;;5027757;28;20021;-75
2021/06/27 08:20:53;;;;;;;13.88;11.23;;;21.30;80.20;;;;;;5047841;28;20082;-74
2021/06/27 08:23:18;;;;;;;13.95;11.30;;;21.30;80.40;;;;;;5038841;28;20622;-74
2021/06/27 08:25:44;;;;;;;15.25;11.60;;;21.30;80.40;;;;;;5044396;28;20017;-74
2021/06/27 08:28:10;;;;;;;12.90;10.63;;;21.30;80.20;;;;;;5041896;28;20070;-75
2021/06/27 08:30:39;;;;;;;15.50;11.38;;;21.40;79.60;;;;;;5040993;28;20502;-74
2021/06/27 08:33:04;;;;;;;12.23;10.40;;;21.40;79.40;;;;;;5041976;28;20512;-71
2021/06/27 08:35:30;;;;;;;15.18;11.02;;;21.40;79.60;;;;;;5021832;28;20033;-75
2021/06/27 08:37:56;;;;;;;15.52;11.07;;;21.50;79.40;;;;;;5025509;28;20033;-74
2021/06/27 08:40:23;;;;;;;14.65;11.45;;;21.50;80.10;;;;;;5037395;28;20035;-76
2021/06/27 08:42:50;;;;;;;14.77;9.63;;;21.50;80.00;;;;;;5020675;28;20037;-74
2021/06/27 08:45:17;;;;;;;13.70;10.70;;;21.60;80.30;;;;;;5038967;28;20033;-74
2021/06/27 08:47:43;;;;;;;14.27;11.32;;;21.60;79.70;;;;;;5042401;28;20044;-74
2021/06/27 08:50:12;;;;;;;13.07;9.32;;;21.70;78.70;;;;;;5030705;28;20040;-74
2021/06/27 08:52:38;;;;;;;14.52;11.13;;;21.70;78.60;;;;;;5038255;28;20025;-75
2021/06/27 08:55:05;;;;;;;11.77;10.35;;;21.80;78.10;;;;;;5034831;28;20431;-76
2021/06/27 08:57:31;;;;;;;13.82;10.23;;;21.80;78.30;;;;;;5042470;28;20377;-72
2021/06/27 09:00:00;;;;;;;13.30;10.90;;;21.90;78.00;;;;;;5041338;28;20033;-76
2021/06/27 09:02:26;;;;;;;13.13;10.35;;;21.90;78.00;;;;;;5036917;28;20038;-73
2021/06/27 09:04:52;;;;;;;14.25;10.80;;;21.80;78.00;;;;;;5041596;28;20025;-73
2021/06/27 09:07:33;;;;;;;11.20;9.32;;;21.80;78.30;;;;;;5047707;28;20128;-75
2021/06/27 09:10:21;;;;;;;14.13;10.77;;;21.90;78.70;;;;;;5040099;28;20494;-74
2021/06/27 09:12:52;;;;;;;10.80;9.55;;;21.90;78.20;;;;;;5037846;28;20061;-75
2021/06/27 09:15:39;;;;;;;12.30;9.75;;;22.00;78.30;;;;;;5038834;28;20022;-74
2021/06/27 09:18:27;;;;;;;14.00;11.07;;;22.20;78.30;;;;;;5041766;28;20038;-73
2021/06/27 09:20:55;;;;;;;13.38;9.65;;;22.20;77.20;;;;;;5024973;28;20024;-75
2021/06/27 09:23:36;;;;;;;12.48;9.43;;;22.20;77.20;;;;;;5035779;28;20037;-74
2021/06/27 09:26:02;;;;;;;;;;;22.20;77.40;;;;;;4945562;28;20033;-75
2021/06/27 09:28:44;;;;;;;12.18;8.77;;;22.10;77.40;;;;;;5044047;28;19982;-76
2021/06/27 09:31:10;;;;;;;8.85;7.45;;;22.20;78.00;;;;;;5046895;28;20025;-77
2021/06/27 09:33:36;;;;;;;11.88;8.93;;;22.30;78.00;;;;;;5009640;28;20035;-77
2021/06/27 09:36:09;;;;;;;12.05;9.07;;;22.50;77.20;;;;;;4997928;28;20037;-77
2021/06/27 09:38:50;;;;;;;13.55;9.55;;;22.50;76.90;;;;;;5001727;28;20024;-77
2021/06/27 09:41:37;;;;;;;11.47;9.20;;;22.50;76.50;;;;;;5048717;28;20032;-77
2021/06/27 09:44:04;;;;;;;14.85;8.98;;;22.50;76.70;;;;;;5025973;28;20028;-77
2021/06/27 09:46:51;;;;;;;11.68;7.90;;;22.40;76.30;;;;;;5040102;28;20482;-74
2021/06/27 09:49:26;;;;;;;9.13;7.78;;;22.40;76.20;;;;;;5044894;28;20411;-76
2021/06/27 09:51:57;;;;;;;9.88;8.35;;;22.50;76.40;;;;;;5042268;28;20028;-76
2021/06/27 09:54:26;;;;;;;11.15;9.02;;;22.50;76.60;;;;;;5040186;28;20024;-75
2021/06/27 09:56:53;;;;;;;9.98;8.07;;;22.60;76.30;;;;;;5031687;28;20045;-78
2021/06/27 09:59:21;;;;;;;10.48;8.57;;;22.60;76.40;;;;;;4967761;28;20039;-76
2021/06/27 10:01:48;;;;;;;11.70;8.50;;;22.70;77.00;;;;;;4991362;28;20022;-75
2021/06/27 10:04:27;;;;;;;11.68;9.52;;;22.70;76.80;;;;;;5029669;28;20041;-73
2021/06/27 10:06:55;;;;;;;9.70;7.70;;;22.70;75.00;;;;;;5031176;28;20046;-77
2021/06/27 10:09:24;;;;;;;10.60;8.70;;;22.70;75.70;;;;;;5038552;28;20411;-79
2021/06/27 10:11:57;;;;;;;12.40;9.70;;;22.80;74.50;;;;;;5039610;28;20049;-78
2021/06/27 10:14:24;;;;;;;9.77;8.18;;;22.90;73.80;;;;;;5040544;28;20112;-73
2021/06/27 10:16:52;;;;;;;10.25;7.90;;;22.90;74.30;;;;;;5037758;28;20031;-74
2021/06/27 10:19:19;;;;;;;9.60;7.18;;;23.00;74.40;;;;;;5034938;28;20086;-77
2021/06/27 10:21:46;;;;;;;10.82;6.85;;;23.00;74.50;;;;;;5035796;28;20031;-73
2021/06/27 10:24:12;;;;;;;11.00;7.40;;;23.00;73.50;;;;;;5040184;28;20047;-75
2021/06/27 10:26:40;;;;;;;7.95;6.45;;;23.10;74.10;;;;;;5038803;28;20044;-73
2021/06/27 10:29:07;;;;;;;8.25;7.00;;;23.10;73.60;;;;;;5021082;28;20446;-73
2021/06/27 10:31:34;;;;;;;8.10;6.18;;;23.10;73.10;;;;;;5040907;28;20048;-73
2021/06/27 10:34:00;;;;;;;9.73;8.35;;;23.10;74.10;;;;;;5038064;28;20022;-75
2021/06/27 10:36:30;;;;;;;11.60;8.73;;;23.20;74.20;;;;;;5025564;28;20033;-74
2021/06/27 10:38:58;;;;;;;8.75;7.03;;;23.30;72.60;;;;;;5038951;28;20509;-75
2021/06/27 10:42:00;;;;;;;10.05;8.35;;;23.40;72.90;;;;;;5037118;28;20096;-72
2021/06/27 10:44:27;;;;;;;12.60;7.45;;;23.50;73.30;;;;;;4941873;28;20031;-74
2021/06/27 10:46:55;;;;;;;10.05;6.88;;;23.40;73.10;;;;;;4997140;28;20043;-75
2021/06/27 10:49:30;;;;;;;8.18;6.85;;;23.30;73.50;;;;;;5034273;28;20076;-74
2021/06/27 10:52:12;;;;;;;7.22;6.13;;;23.20;73.40;;;;;;5043261;28;20036;-74
2021/06/27 10:55:21;;;;;;;9.13;6.05;;;23.20;74.10;;;;;;5000138;28;20055;-74
2021/06/27 10:57:54;;;;;;;9.00;5.88;;;23.30;73.70;;;;;;5035728;28;20048;-77
2021/06/27 11:00:21;;;;;;;14.55;7.35;;;23.40;73.30;;;;;;5042380;28;20029;-75
2021/06/27 11:02:47;;;;;;;8.18;6.47;;;23.50;72.20;;;;;;5039002;28;20087;-75
2021/06/27 11:05:28;;;;;;;8.15;7.07;;;23.70;71.90;;;;;;5035428;28;20033;-76
2021/06/27 11:07:58;;;;;;;10.80;6.50;;;23.60;72.40;;;;;;5038105;28;20037;-77
2021/06/27 11:10:24;;;;;;;7.68;6.35;;;23.60;73.80;;;;;;5036190;28;20026;-80
2021/06/27 11:13:02;;;;;;;9.00;6.43;;;23.60;74.50;;;;;;5014641;28;20029;-80
2021/06/27 11:15:39;;;;;;;7.40;5.72;;;23.70;73.10;;;;;;4985289;28;20030;-78
2021/06/27 11:18:07;;;;;;;7.00;6.00;;;23.80;72.50;;;;;;5022715;28;20046;-74
2021/06/27 11:20:35;;;;;;;10.55;6.80;;;23.90;72.70;;;;;;5003301;28;20066;-74
2021/06/27 11:23:01;;;;;;;9.90;6.90;;;24.10;72.70;;;;;;4998517;28;20038;-72
2021/06/27 11:25:38;;;;;;;8.70;7.03;;;24.20;71.00;;;;;;4979010;28;20025;-72
2021/06/27 11:28:34;;;;;;;8.63;6.78;;;24.20;70.70;;;;;;5042503;28;20951;-74
2021/06/27 11:31:23;;;;;;;7.72;6.13;;;24.10;71.20;;;;;;5046069;28;20049;-74
2021/06/27 11:34:20;;;;;;;7.30;5.53;;;24.00;71.30;;;;;;5019013;28;20032;-73
2021/06/27 11:36:49;;;;;;;5.95;5.22;;;24.00;71.20;;;;;;5000802;28;20477;-74
2021/06/27 11:39:52;;;;;;;5.55;4.43;;;24.10;71.30;;;;;;5011222;28;20025;-75
2021/06/27 11:42:28;;;;;;;5.55;4.95;;;24.40;71.30;;;;;;5001854;28;20085;-76
2021/06/27 11:45:06;;;;;;;6.40;5.13;;;24.70;70.30;;;;;;5049813;28;20101;-76
2021/06/27 11:47:33;;;;;;;5.30;4.65;;;25.10;68.90;;;;;;4998463;28;20455;-76
2021/06/27 11:50:12;;;;;;;5.85;5.18;;;25.40;68.00;;;;;;4996377;28;20568;-74
2021/06/27 11:52:38;;;;;;;6.60;5.57;;;25.40;67.00;;;;;;5030465;28;20029;-77
2021/06/27 11:55:07;;;;;;;7.03;4.95;;;25.20;66.60;;;;;;5051186;28;20036;-77
2021/06/27 11:57:41;;;;;;;5.60;4.97;;;25.00;66.80;;;;;;5044151;28;20056;-77
2021/06/27 12:00:12;;;;;;;6.07;5.40;;;24.80;67.90;;;;;;4998908;28;20041;-75
2021/06/27 12:02:39;;;;;;;7.47;6.07;;;24.60;68.10;;;;;;5051162;28;20144;-75
2021/06/27 12:05:10;;;;;;;6.15;5.05;;;24.80;68.20;;;;;;5028099;28;20077;-75
2021/06/27 12:07:43;;;;;;;7.72;5.28;;;25.40;66.30;;;;;;5044774;28;20028;-74
2021/06/27 12:10:21;;;;;;;4.82;4.35;;;25.90;64.90;;;;;;4971771;28;20077;-72
2021/06/27 12:13:01;;;;;;;4.75;4.00;;;26.50;63.10;;;;;;5029589;28;20087;-75
2021/06/27 12:15:27;;;;;;;4.60;4.20;;;26.70;61.20;;;;;;5038837;28;20029;-71
2021/06/27 12:18:13;;;;;;;5.07;4.53;;;26.60;63.20;;;;;;5042238;28;20494;-72
2021/06/27 12:20:48;;;;;;;4.80;4.22;;;26.40;63.70;;;;;;5041989;28;20087;-72
2021/06/27 12:23:27;;;;;;;5.80;4.30;;;26.20;64.50;;;;;;5021088;28;20121;-72
2021/06/27 12:26:01;;;;;;;5.60;4.50;;;26.10;64.10;;;;;;5032639;28;20040;-71
2021/06/27 12:28:33;;;;;;;4.20;3.80;;;26.10;62.70;;;;;;5036876;28;20550;-71
2021/06/27 12:31:06;;;;;;;4.85;3.80;;;26.00;62.80;;;;;;5036791;28;20049;-71
2021/06/27 12:33:40;;;;;;;7.18;4.18;;;25.90;63.30;;;;;;5039318;28;20021;-71
2021/06/27 12:36:14;;;;;;;8.40;4.22;;;25.90;61.00;;;;;;5059932;23;21180;-77
2021/06/27 12:38:41;;;;;;;5.03;3.67;;;25.80;61.60;;;;;;5018010;28;20036;-78